EBCV

Chièvres Air Base Airport

Chièvres, Belgium
METAR EBCV 260355Z AUTO 04003KT 0700 FG FEW098/// BKN130/// 15/15 Q1018 RED
Observed Flight Rules
May-26 @ 03:55 UTC (30 minutes ago) Instrument Flight Rules
Wind Visibility Clouds Conditions
40° at 3 knots 692 meters
  • Few at 9,800' AGL
  • Broken at 13,000' AGL
  • Fog
Temperatures Readings
Current 15°C / 59°F
Dewpoint 15°C / 59°F
Humidity 100%
Altimeter 30.06" Hg
Pressure 1018 hPa
Elevation 63
METAR EBCV 260355Z AUTO 04003KT 0700 FG FEW098/// BKN130/// 15/15 Q1018 RED
Observed Flight Rules
May-26 @ 03:55 UTC
(30 minutes ago)
LIFR
Wind Visibility
40° at 3 knots 692 meters
Clouds
  • Few at 9,800' AGL
  • Broken at 13,000' AGL
Conditions
  • Fog
Temperature Dewpoint
15°C / 59°F 15°C / 59°F
Humidity Altimeter Pressure
100% 30.06" Hg 1018 hPa